sensor_id;sensor_type;location;lat;lon;timestamp;P1;durP1;ratioP1;P2;durP2;ratioP2
20441;SDS011;10380;52.102;20.614;2023-02-28T00:01:45;66.67;;;30.97;;
20441;SDS011;10380;52.102;20.614;2023-02-28T00:04:12;63.13;;;29.50;;
20441;SDS011;10380;52.102;20.614;2023-02-28T00:06:39;62.00;;;30.27;;
20441;SDS011;10380;52.102;20.614;2023-02-28T00:09:08;58.00;;;28.37;;
20441;SDS011;10380;52.102;20.614;2023-02-28T00:11:35;55.13;;;24.70;;
20441;SDS011;10380;52.102;20.614;2023-02-28T00:14:04;52.90;;;24.67;;
20441;SDS011;10380;52.102;20.614;2023-02-28T00:16:31;62.73;;;26.40;;
20441;SDS011;10380;52.102;20.614;2023-02-28T00:18:58;48.90;;;24.10;;
20441;SDS011;10380;52.102;20.614;2023-02-28T00:21:25;50.47;;;24.80;;
20441;SDS011;10380;52.102;20.614;2023-02-28T00:23:53;54.20;;;25.37;;
20441;SDS011;10380;52.102;20.614;2023-02-28T00:26:20;49.20;;;23.40;;
20441;SDS011;10380;52.102;20.614;2023-02-28T00:28:47;65.13;;;26.10;;
20441;SDS011;10380;52.102;20.614;2023-02-28T00:31:14;43.97;;;23.40;;
20441;SDS011;10380;52.102;20.614;2023-02-28T00:33:41;47.93;;;22.73;;
20441;SDS011;10380;52.102;20.614;2023-02-28T00:36:10;54.43;;;24.10;;
20441;SDS011;10380;52.102;20.614;2023-02-28T00:38:39;73.30;;;30.37;;
20441;SDS011;10380;52.102;20.614;2023-02-28T00:41:08;72.27;;;32.53;;
20441;SDS011;10380;52.102;20.614;2023-02-28T00:43:36;76.20;;;34.17;;
20441;SDS011;10380;52.102;20.614;2023-02-28T00:46:05;68.40;;;32.67;;
20441;SDS011;10380;52.102;20.614;2023-02-28T00:48:32;73.57;;;33.33;;
20441;SDS011;10380;52.102;20.614;2023-02-28T00:51:00;77.67;;;35.00;;
20441;SDS011;10380;52.102;20.614;2023-02-28T00:53:27;59.73;;;28.17;;
20441;SDS011;10380;52.102;20.614;2023-02-28T00:55:54;58.90;;;28.13;;
20441;SDS011;10380;52.102;20.614;2023-02-28T00:58:21;63.07;;;29.77;;
20441;SDS011;10380;52.102;20.614;2023-02-28T01:00:49;60.73;;;27.03;;
20441;SDS011;10380;52.102;20.614;2023-02-28T01:03:17;59.80;;;27.40;;
20441;SDS011;10380;52.102;20.614;2023-02-28T01:05:45;59.40;;;26.07;;
20441;SDS011;10380;52.102;20.614;2023-02-28T01:08:13;64.13;;;27.90;;
20441;SDS011;10380;52.102;20.614;2023-02-28T01:10:41;70.97;;;29.90;;
20441;SDS011;10380;52.102;20.614;2023-02-28T01:13:09;64.63;;;28.83;;
20441;SDS011;10380;52.102;20.614;2023-02-28T01:15:39;78.63;;;30.23;;
20441;SDS011;10380;52.102;20.614;2023-02-28T01:18:09;70.20;;;29.53;;
20441;SDS011;10380;52.102;20.614;2023-02-28T01:20:37;74.17;;;29.97;;
20441;SDS011;10380;52.102;20.614;2023-02-28T01:23:04;73.73;;;34.23;;
20441;SDS011;10380;52.102;20.614;2023-02-28T01:25:33;72.23;;;28.80;;
20441;SDS011;10380;52.102;20.614;2023-02-28T01:28:01;64.80;;;29.13;;
20441;SDS011;10380;52.102;20.614;2023-02-28T01:30:30;67.73;;;29.40;;
20441;SDS011;10380;52.102;20.614;2023-02-28T01:32:57;76.57;;;34.40;;
20441;SDS011;10380;52.102;20.614;2023-02-28T01:35:24;61.90;;;26.80;;
20441;SDS011;10380;52.102;20.614;2023-02-28T01:37:51;54.60;;;25.13;;
20441;SDS011;10380;52.102;20.614;2023-02-28T01:40:19;52.93;;;25.73;;
20441;SDS011;10380;52.102;20.614;2023-02-28T01:42:46;50.23;;;25.77;;
20441;SDS011;10380;52.102;20.614;2023-02-28T01:47:50;56.40;;;25.40;;
20441;SDS011;10380;52.102;20.614;2023-02-28T01:50:22;51.17;;;25.43;;
20441;SDS011;10380;52.102;20.614;2023-02-28T01:52:52;52.20;;;24.33;;
20441;SDS011;10380;52.102;20.614;2023-02-28T01:55:23;47.10;;;24.30;;
20441;SDS011;10380;52.102;20.614;2023-02-28T01:57:56;54.80;;;24.50;;
20441;SDS011;10380;52.102;20.614;2023-02-28T02:00:26;71.50;;;27.20;;
20441;SDS011;10380;52.102;20.614;2023-02-28T02:03:06;54.10;;;26.10;;
20441;SDS011;10380;52.102;20.614;2023-02-28T02:05:36;54.93;;;26.13;;
20441;SDS011;10380;52.102;20.614;2023-02-28T02:08:09;58.27;;;27.80;;
20441;SDS011;10380;52.102;20.614;2023-02-28T02:10:43;54.93;;;27.00;;
20441;SDS011;10380;52.102;20.614;2023-02-28T02:13:24;67.53;;;28.87;;
20441;SDS011;10380;52.102;20.614;2023-02-28T02:18:46;57.20;;;28.23;;
20441;SDS011;10380;52.102;20.614;2023-02-28T02:26:52;50.43;;;25.20;;
20441;SDS011;10380;52.102;20.614;2023-02-28T02:34:48;61.20;;;26.53;;
20441;SDS011;10380;52.102;20.614;2023-02-28T02:40:14;92.43;;;39.00;;
20441;SDS011;10380;52.102;20.614;2023-02-28T02:42:58;98.50;;;42.90;;
20441;SDS011;10380;52.102;20.614;2023-02-28T02:48:19;91.30;;;39.77;;
20441;SDS011;10380;52.102;20.614;2023-02-28T02:50:54;113.83;;;46.63;;
20441;SDS011;10380;52.102;20.614;2023-02-28T02:53:34;105.30;;;41.97;;
20441;SDS011;10380;52.102;20.614;2023-02-28T02:56:17;133.30;;;56.83;;
20441;SDS011;10380;52.102;20.614;2023-02-28T02:58:47;128.93;;;51.77;;
20441;SDS011;10380;52.102;20.614;2023-02-28T03:01:22;125.47;;;54.57;;
20441;SDS011;10380;52.102;20.614;2023-02-28T03:03:59;102.93;;;42.60;;
20441;SDS011;10380;52.102;20.614;2023-02-28T03:06:29;87.37;;;38.10;;
20441;SDS011;10380;52.102;20.614;2023-02-28T03:08:57;83.60;;;34.53;;
20441;SDS011;10380;52.102;20.614;2023-02-28T03:11:23;64.33;;;28.97;;
20441;SDS011;10380;52.102;20.614;2023-02-28T03:13:55;66.10;;;28.83;;
20441;SDS011;10380;52.102;20.614;2023-02-28T03:21:49;55.87;;;26.47;;
20441;SDS011;10380;52.102;20.614;2023-02-28T03:27:09;62.93;;;28.33;;
20441;SDS011;10380;52.102;20.614;2023-02-28T03:29:46;62.23;;;27.83;;
20441;SDS011;10380;52.102;20.614;2023-02-28T03:32:20;51.50;;;26.53;;
20441;SDS011;10380;52.102;20.614;2023-02-28T03:37:37;54.67;;;27.13;;
20441;SDS011;10380;52.102;20.614;2023-02-28T03:40:14;54.03;;;28.90;;
20441;SDS011;10380;52.102;20.614;2023-02-28T03:42:47;53.33;;;27.63;;
20441;SDS011;10380;52.102;20.614;2023-02-28T03:45:25;53.73;;;26.00;;
20441;SDS011;10380;52.102;20.614;2023-02-28T03:50:41;58.73;;;28.73;;
20441;SDS011;10380;52.102;20.614;2023-02-28T03:55:49;53.03;;;29.10;;
20441;SDS011;10380;52.102;20.614;2023-02-28T04:01:12;66.13;;;28.63;;
20441;SDS011;10380;52.102;20.614;2023-02-28T04:03:47;65.23;;;30.77;;
20441;SDS011;10380;52.102;20.614;2023-02-28T04:06:16;61.20;;;31.27;;
20441;SDS011;10380;52.102;20.614;2023-02-28T04:08:46;70.03;;;30.87;;
20441;SDS011;10380;52.102;20.614;2023-02-28T04:13:54;58.17;;;29.53;;
20441;SDS011;10380;52.102;20.614;2023-02-28T04:16:21;79.30;;;32.80;;
20441;SDS011;10380;52.102;20.614;2023-02-28T04:19:01;72.03;;;31.97;;
20441;SDS011;10380;52.102;20.614;2023-02-28T04:21:36;72.90;;;33.93;;
20441;SDS011;10380;52.102;20.614;2023-02-28T04:24:15;71.30;;;32.43;;
20441;SDS011;10380;52.102;20.614;2023-02-28T04:26:47;69.63;;;34.27;;
20441;SDS011;10380;52.102;20.614;2023-02-28T04:29:26;78.33;;;37.60;;
20441;SDS011;10380;52.102;20.614;2023-02-28T04:31:58;96.03;;;42.60;;
20441;SDS011;10380;52.102;20.614;2023-02-28T04:34:29;97.97;;;41.83;;
20441;SDS011;10380;52.102;20.614;2023-02-28T04:36:57;99.20;;;41.67;;
20441;SDS011;10380;52.102;20.614;2023-02-28T04:39:39;89.33;;;40.97;;
20441;SDS011;10380;52.102;20.614;2023-02-28T04:42:08;84.50;;;41.43;;
20441;SDS011;10380;52.102;20.614;2023-02-28T04:44:35;93.87;;;40.87;;
20441;SDS011;10380;52.102;20.614;2023-02-28T04:47:02;93.67;;;39.87;;
20441;SDS011;10380;52.102;20.614;2023-02-28T04:49:29;78.70;;;39.37;;
20441;SDS011;10380;52.102;20.614;2023-02-28T04:51:57;90.73;;;38.60;;
20441;SDS011;10380;52.102;20.614;2023-02-28T04:54:24;86.13;;;37.67;;
20441;SDS011;10380;52.102;20.614;2023-02-28T04:56:51;78.17;;;35.37;;
20441;SDS011;10380;52.102;20.614;2023-02-28T04:59:18;65.37;;;35.43;;
20441;SDS011;10380;52.102;20.614;2023-02-28T05:01:47;73.67;;;33.97;;
20441;SDS011;10380;52.102;20.614;2023-02-28T05:04:15;70.23;;;34.07;;
20441;SDS011;10380;52.102;20.614;2023-02-28T05:06:44;70.13;;;32.00;;
20441;SDS011;10380;52.102;20.614;2023-02-28T05:09:11;66.90;;;33.20;;
20441;SDS011;10380;52.102;20.614;2023-02-28T05:11:38;65.83;;;29.83;;
20441;SDS011;10380;52.102;20.614;2023-02-28T05:14:11;65.93;;;31.43;;
20441;SDS011;10380;52.102;20.614;2023-02-28T05:16:39;69.63;;;31.23;;
20441;SDS011;10380;52.102;20.614;2023-02-28T05:19:06;67.23;;;30.87;;
20441;SDS011;10380;52.102;20.614;2023-02-28T05:21:35;65.67;;;31.17;;
20441;SDS011;10380;52.102;20.614;2023-02-28T05:24:05;60.30;;;30.70;;
20441;SDS011;10380;52.102;20.614;2023-02-28T05:26:36;59.90;;;29.67;;
20441;SDS011;10380;52.102;20.614;2023-02-28T05:29:04;58.50;;;28.40;;
20441;SDS011;10380;52.102;20.614;2023-02-28T05:31:31;68.13;;;31.20;;
20441;SDS011;10380;52.102;20.614;2023-02-28T05:33:59;74.83;;;34.80;;
20441;SDS011;10380;52.102;20.614;2023-02-28T05:36:26;94.57;;;39.17;;
20441;SDS011;10380;52.102;20.614;2023-02-28T05:38:55;95.87;;;39.83;;
20441;SDS011;10380;52.102;20.614;2023-02-28T05:41:22;84.50;;;38.13;;
20441;SDS011;10380;52.102;20.614;2023-02-28T05:43:48;83.70;;;37.50;;
20441;SDS011;10380;52.102;20.614;2023-02-28T05:46:16;96.97;;;40.83;;
20441;SDS011;10380;52.102;20.614;2023-02-28T05:48:45;81.67;;;38.13;;
20441;SDS011;10380;52.102;20.614;2023-02-28T05:51:13;102.70;;;40.20;;
20441;SDS011;10380;52.102;20.614;2023-02-28T05:53:40;81.13;;;35.67;;
20441;SDS011;10380;52.102;20.614;2023-02-28T05:56:08;85.10;;;37.13;;
20441;SDS011;10380;52.102;20.614;2023-02-28T05:58:35;85.77;;;37.93;;
20441;SDS011;10380;52.102;20.614;2023-02-28T06:01:19;86.60;;;39.53;;
20441;SDS011;10380;52.102;20.614;2023-02-28T06:03:59;87.40;;;39.33;;
20441;SDS011;10380;52.102;20.614;2023-02-28T06:06:27;101.70;;;41.23;;
20441;SDS011;10380;52.102;20.614;2023-02-28T06:08:54;75.10;;;35.17;;
20441;SDS011;10380;52.102;20.614;2023-02-28T06:11:22;86.20;;;36.93;;
20441;SDS011;10380;52.102;20.614;2023-02-28T06:13:54;82.90;;;38.00;;
20441;SDS011;10380;52.102;20.614;2023-02-28T06:16:30;102.40;;;43.40;;
20441;SDS011;10380;52.102;20.614;2023-02-28T06:18:59;78.97;;;39.30;;
20441;SDS011;10380;52.102;20.614;2023-02-28T06:21:28;272.97;;;108.27;;
20441;SDS011;10380;52.102;20.614;2023-02-28T06:23:57;205.47;;;82.40;;
20441;SDS011;10380;52.102;20.614;2023-02-28T06:26:24;140.47;;;59.30;;
20441;SDS011;10380;52.102;20.614;2023-02-28T06:28:52;176.33;;;64.77;;
20441;SDS011;10380;52.102;20.614;2023-02-28T06:31:19;142.43;;;59.43;;
20441;SDS011;10380;52.102;20.614;2023-02-28T06:33:49;139.73;;;55.77;;
20441;SDS011;10380;52.102;20.614;2023-02-28T06:36:16;124.10;;;54.53;;
20441;SDS011;10380;52.102;20.614;2023-02-28T06:38:44;101.63;;;47.07;;
20441;SDS011;10380;52.102;20.614;2023-02-28T06:41:11;108.53;;;48.00;;
20441;SDS011;10380;52.102;20.614;2023-02-28T06:43:39;96.73;;;45.80;;
20441;SDS011;10380;52.102;20.614;2023-02-28T06:46:08;94.40;;;43.00;;
20441;SDS011;10380;52.102;20.614;2023-02-28T06:48:37;82.73;;;42.10;;
20441;SDS011;10380;52.102;20.614;2023-02-28T06:51:05;84.30;;;40.60;;
20441;SDS011;10380;52.102;20.614;2023-02-28T06:53:37;243.07;;;111.93;;
20441;SDS011;10380;52.102;20.614;2023-02-28T06:56:05;86.27;;;45.30;;
20441;SDS011;10380;52.102;20.614;2023-02-28T06:58:33;91.20;;;37.30;;
20441;SDS011;10380;52.102;20.614;2023-02-28T07:01:01;67.00;;;33.17;;
20441;SDS011;10380;52.102;20.614;2023-02-28T07:03:29;58.27;;;30.90;;
20441;SDS011;10380;52.102;20.614;2023-02-28T07:05:59;64.43;;;32.97;;
20441;SDS011;10380;52.102;20.614;2023-02-28T07:08:27;53.93;;;27.80;;
20441;SDS011;10380;52.102;20.614;2023-02-28T07:10:54;44.03;;;23.60;;
20441;SDS011;10380;52.102;20.614;2023-02-28T07:13:22;100.43;;;52.27;;
20441;SDS011;10380;52.102;20.614;2023-02-28T07:15:56;63.07;;;30.40;;
20441;SDS011;10380;52.102;20.614;2023-02-28T07:18:25;35.00;;;18.43;;
20441;SDS011;10380;52.102;20.614;2023-02-28T07:20:52;30.37;;;16.63;;
20441;SDS011;10380;52.102;20.614;2023-02-28T07:23:19;38.93;;;18.17;;
20441;SDS011;10380;52.102;20.614;2023-02-28T07:25:47;33.03;;;18.43;;
20441;SDS011;10380;52.102;20.614;2023-02-28T07:28:15;29.43;;;18.00;;
20441;SDS011;10380;52.102;20.614;2023-02-28T07:30:42;33.77;;;19.73;;
20441;SDS011;10380;52.102;20.614;2023-02-28T07:33:09;38.63;;;20.80;;
20441;SDS011;10380;52.102;20.614;2023-02-28T07:35:36;43.27;;;24.73;;
20441;SDS011;10380;52.102;20.614;2023-02-28T07:38:03;58.13;;;30.07;;
20441;SDS011;10380;52.102;20.614;2023-02-28T07:40:30;64.50;;;33.07;;
20441;SDS011;10380;52.102;20.614;2023-02-28T07:42:58;53.20;;;27.03;;
20441;SDS011;10380;52.102;20.614;2023-02-28T07:45:27;36.77;;;17.67;;
20441;SDS011;10380;52.102;20.614;2023-02-28T07:47:55;58.57;;;26.03;;
20441;SDS011;10380;52.102;20.614;2023-02-28T07:50:22;40.30;;;20.53;;
20441;SDS011;10380;52.102;20.614;2023-02-28T07:52:52;24.27;;;15.20;;
20441;SDS011;10380;52.102;20.614;2023-02-28T07:55:19;24.03;;;15.07;;
20441;SDS011;10380;52.102;20.614;2023-02-28T07:57:45;33.67;;;17.00;;
20441;SDS011;10380;52.102;20.614;2023-02-28T08:00:12;27.57;;;14.93;;
20441;SDS011;10380;52.102;20.614;2023-02-28T08:02:40;34.73;;;19.47;;
20441;SDS011;10380;52.102;20.614;2023-02-28T08:05:07;24.67;;;15.57;;
20441;SDS011;10380;52.102;20.614;2023-02-28T08:07:34;18.67;;;12.83;;
20441;SDS011;10380;52.102;20.614;2023-02-28T08:10:01;16.27;;;11.03;;
20441;SDS011;10380;52.102;20.614;2023-02-28T08:12:29;15.03;;;8.47;;
20441;SDS011;10380;52.102;20.614;2023-02-28T08:14:55;13.87;;;7.77;;
20441;SDS011;10380;52.102;20.614;2023-02-28T08:17:22;17.27;;;9.10;;
20441;SDS011;10380;52.102;20.614;2023-02-28T08:19:49;15.23;;;8.57;;
20441;SDS011;10380;52.102;20.614;2023-02-28T08:22:16;15.70;;;8.80;;
20441;SDS011;10380;52.102;20.614;2023-02-28T08:24:43;12.20;;;7.57;;
20441;SDS011;10380;52.102;20.614;2023-02-28T08:27:10;13.17;;;8.03;;
20441;SDS011;10380;52.102;20.614;2023-02-28T08:29:37;14.40;;;9.50;;
20441;SDS011;10380;52.102;20.614;2023-02-28T08:32:05;14.67;;;8.47;;
20441;SDS011;10380;52.102;20.614;2023-02-28T08:34:45;11.77;;;7.60;;
20441;SDS011;10380;52.102;20.614;2023-02-28T08:37:13;17.83;;;9.53;;
20441;SDS011;10380;52.102;20.614;2023-02-28T08:39:40;12.33;;;8.00;;
20441;SDS011;10380;52.102;20.614;2023-02-28T08:42:07;9.77;;;7.17;;
20441;SDS011;10380;52.102;20.614;2023-02-28T08:44:33;11.60;;;7.23;;
20441;SDS011;10380;52.102;20.614;2023-02-28T08:47:00;16.00;;;8.37;;
20441;SDS011;10380;52.102;20.614;2023-02-28T08:49:27;16.40;;;8.87;;
20441;SDS011;10380;52.102;20.614;2023-02-28T08:51:54;14.70;;;9.27;;
20441;SDS011;10380;52.102;20.614;2023-02-28T08:54:23;15.83;;;9.83;;
20441;SDS011;10380;52.102;20.614;2023-02-28T08:56:51;14.10;;;9.43;;
20441;SDS011;10380;52.102;20.614;2023-02-28T08:59:18;31.80;;;12.53;;
20441;SDS011;10380;52.102;20.614;2023-02-28T09:01:45;19.37;;;10.40;;
20441;SDS011;10380;52.102;20.614;2023-02-28T09:04:12;22.57;;;9.70;;
20441;SDS011;10380;52.102;20.614;2023-02-28T09:06:44;28.03;;;12.30;;
20441;SDS011;10380;52.102;20.614;2023-02-28T09:09:11;16.80;;;9.30;;
20441;SDS011;10380;52.102;20.614;2023-02-28T09:11:41;18.40;;;10.40;;
20441;SDS011;10380;52.102;20.614;2023-02-28T09:14:08;11.13;;;8.10;;
20441;SDS011;10380;52.102;20.614;2023-02-28T09:16:35;13.77;;;8.07;;
20441;SDS011;10380;52.102;20.614;2023-02-28T09:19:02;13.30;;;8.47;;
20441;SDS011;10380;52.102;20.614;2023-02-28T09:21:29;14.50;;;8.57;;
20441;SDS011;10380;52.102;20.614;2023-02-28T09:23:56;15.77;;;9.57;;
20441;SDS011;10380;52.102;20.614;2023-02-28T09:26:24;15.53;;;9.07;;
20441;SDS011;10380;52.102;20.614;2023-02-28T09:29:07;13.43;;;8.67;;
20441;SDS011;10380;52.102;20.614;2023-02-28T09:31:34;25.53;;;12.37;;
20441;SDS011;10380;52.102;20.614;2023-02-28T09:34:01;16.13;;;9.20;;
20441;SDS011;10380;52.102;20.614;2023-02-28T09:36:30;14.60;;;9.90;;
20441;SDS011;10380;52.102;20.614;2023-02-28T09:39:09;13.97;;;8.83;;
20441;SDS011;10380;52.102;20.614;2023-02-28T09:41:41;38.30;;;14.93;;
20441;SDS011;10380;52.102;20.614;2023-02-28T09:46:48;11.13;;;7.33;;
20441;SDS011;10380;52.102;20.614;2023-02-28T09:49:22;12.63;;;7.13;;
20441;SDS011;10380;52.102;20.614;2023-02-28T09:52:01;12.27;;;7.73;;
20441;SDS011;10380;52.102;20.614;2023-02-28T09:54:32;14.67;;;7.30;;
20441;SDS011;10380;52.102;20.614;2023-02-28T09:57:05;8.93;;;7.13;;
20441;SDS011;10380;52.102;20.614;2023-02-28T09:59:49;10.57;;;6.87;;
20441;SDS011;10380;52.102;20.614;2023-02-28T10:04:59;14.70;;;8.13;;
20441;SDS011;10380;52.102;20.614;2023-02-28T10:10:53;17.57;;;9.00;;
20441;SDS011;10380;52.102;20.614;2023-02-28T10:15:39;13.13;;;8.67;;
20441;SDS011;10380;52.102;20.614;2023-02-28T10:18:10;14.90;;;9.87;;
20441;SDS011;10380;52.102;20.614;2023-02-28T10:20:41;31.20;;;17.03;;
20441;SDS011;10380;52.102;20.614;2023-02-28T10:23:12;12.97;;;8.97;;
20441;SDS011;10380;52.102;20.614;2023-02-28T10:25:39;29.37;;;13.83;;
20441;SDS011;10380;52.102;20.614;2023-02-28T10:30:39;15.60;;;9.03;;
20441;SDS011;10380;52.102;20.614;2023-02-28T10:33:21;12.77;;;8.13;;
20441;SDS011;10380;52.102;20.614;2023-02-28T10:35:50;13.73;;;8.90;;
20441;SDS011;10380;52.102;20.614;2023-02-28T10:38:23;14.57;;;9.20;;
20441;SDS011;10380;52.102;20.614;2023-02-28T10:40:52;14.20;;;8.87;;
20441;SDS011;10380;52.102;20.614;2023-02-28T10:43:37;9.80;;;6.30;;
20441;SDS011;10380;52.102;20.614;2023-02-28T10:48:45;18.17;;;8.67;;
20441;SDS011;10380;52.102;20.614;2023-02-28T10:51:24;12.50;;;8.57;;
20441;SDS011;10380;52.102;20.614;2023-02-28T10:54:00;23.47;;;13.97;;
20441;SDS011;10380;52.102;20.614;2023-02-28T10:56:28;13.77;;;9.30;;
20441;SDS011;10380;52.102;20.614;2023-02-28T11:01:42;15.80;;;8.43;;
20441;SDS011;10380;52.102;20.614;2023-02-28T11:06:59;11.30;;;7.53;;
20441;SDS011;10380;52.102;20.614;2023-02-28T11:09:37;10.70;;;7.27;;
20441;SDS011;10380;52.102;20.614;2023-02-28T11:12:07;9.47;;;5.93;;
20441;SDS011;10380;52.102;20.614;2023-02-28T11:14:47;13.13;;;8.77;;
20441;SDS011;10380;52.102;20.614;2023-02-28T11:17:21;12.83;;;8.60;;
20441;SDS011;10380;52.102;20.614;2023-02-28T11:20:04;11.50;;;6.47;;
20441;SDS011;10380;52.102;20.614;2023-02-28T11:22:35;11.37;;;7.97;;
20441;SDS011;10380;52.102;20.614;2023-02-28T11:27:53;12.40;;;8.33;;
20441;SDS011;10380;52.102;20.614;2023-02-28T11:30:23;15.30;;;9.47;;
20441;SDS011;10380;52.102;20.614;2023-02-28T11:32:59;13.03;;;9.00;;
20441;SDS011;10380;52.102;20.614;2023-02-28T11:35:31;20.73;;;11.27;;
20441;SDS011;10380;52.102;20.614;2023-02-28T11:38:02;15.87;;;10.13;;
20441;SDS011;10380;52.102;20.614;2023-02-28T11:48:34;23.80;;;10.73;;
20441;SDS011;10380;52.102;20.614;2023-02-28T12:10:26;11.30;;;7.83;;
20441;SDS011;10380;52.102;20.614;2023-02-28T12:13:11;11.50;;;8.83;;
20441;SDS011;10380;52.102;20.614;2023-02-28T12:18:41;12.83;;;8.43;;
20441;SDS011;10380;52.102;20.614;2023-02-28T12:26:47;14.60;;;8.50;;
20441;SDS011;10380;52.102;20.614;2023-02-28T12:29:22;12.33;;;8.30;;
20441;SDS011;10380;52.102;20.614;2023-02-28T12:31:56;14.10;;;8.23;;
20441;SDS011;10380;52.102;20.614;2023-02-28T12:34:47;10.53;;;8.67;;
20441;SDS011;10380;52.102;20.614;2023-02-28T12:37:22;10.30;;;8.00;;
20441;SDS011;10380;52.102;20.614;2023-02-28T12:40:01;9.87;;;7.63;;
20441;SDS011;10380;52.102;20.614;2023-02-28T12:42:33;11.73;;;8.93;;
20441;SDS011;10380;52.102;20.614;2023-02-28T12:45:06;12.43;;;8.67;;
20441;SDS011;10380;52.102;20.614;2023-02-28T12:47:39;11.43;;;8.20;;
20441;SDS011;10380;52.102;20.614;2023-02-28T12:50:09;12.10;;;8.27;;
20441;SDS011;10380;52.102;20.614;2023-02-28T12:53:00;13.70;;;9.10;;
20441;SDS011;10380;52.102;20.614;2023-02-28T13:09:12;16.77;;;11.43;;
20441;SDS011;10380;52.102;20.614;2023-02-28T13:11:45;11.73;;;9.03;;
20441;SDS011;10380;52.102;20.614;2023-02-28T13:14:22;17.50;;;9.47;;
20441;SDS011;10380;52.102;20.614;2023-02-28T13:19:26;39.47;;;14.83;;
20441;SDS011;10380;52.102;20.614;2023-02-28T13:21:57;16.07;;;9.90;;
20441;SDS011;10380;52.102;20.614;2023-02-28T13:24:42;46.13;;;23.90;;
20441;SDS011;10380;52.102;20.614;2023-02-28T13:29:42;12.50;;;8.97;;
20441;SDS011;10380;52.102;20.614;2023-02-28T13:34:38;11.60;;;8.30;;
20441;SDS011;10380;52.102;20.614;2023-02-28T13:37:54;9.77;;;7.63;;
20441;SDS011;10380;52.102;20.614;2023-02-28T13:40:35;8.70;;;7.50;;
20441;SDS011;10380;52.102;20.614;2023-02-28T13:43:07;13.97;;;9.53;;
20441;SDS011;10380;52.102;20.614;2023-02-28T13:45:35;15.53;;;9.77;;
20441;SDS011;10380;52.102;20.614;2023-02-28T13:48:16;17.93;;;10.93;;
20441;SDS011;10380;52.102;20.614;2023-02-28T13:50:45;13.60;;;9.20;;
20441;SDS011;10380;52.102;20.614;2023-02-28T13:55:52;14.03;;;9.23;;
20441;SDS011;10380;52.102;20.614;2023-02-28T13:58:43;10.33;;;8.13;;
20441;SDS011;10380;52.102;20.614;2023-02-28T14:01:41;10.63;;;7.83;;
20441;SDS011;10380;52.102;20.614;2023-02-28T14:04:51;9.53;;;6.90;;
20441;SDS011;10380;52.102;20.614;2023-02-28T14:07:31;9.73;;;7.93;;
20441;SDS011;10380;52.102;20.614;2023-02-28T14:10:06;11.03;;;7.93;;
20441;SDS011;10380;52.102;20.614;2023-02-28T14:18:14;13.17;;;9.17;;
20441;SDS011;10380;52.102;20.614;2023-02-28T14:26:51;22.83;;;12.37;;
20441;SDS011;10380;52.102;20.614;2023-02-28T14:37:42;31.70;;;15.57;;
20441;SDS011;10380;52.102;20.614;2023-02-28T14:40:14;15.50;;;10.23;;
20441;SDS011;10380;52.102;20.614;2023-02-28T14:42:48;63.07;;;22.70;;
20441;SDS011;10380;52.102;20.614;2023-02-28T14:45:22;20.10;;;9.67;;
20441;SDS011;10380;52.102;20.614;2023-02-28T14:47:49;50.13;;;18.47;;
20441;SDS011;10380;52.102;20.614;2023-02-28T14:50:19;19.47;;;9.97;;
20441;SDS011;10380;52.102;20.614;2023-02-28T14:52:50;43.43;;;16.70;;
20441;SDS011;10380;52.102;20.614;2023-02-28T14:55:19;42.50;;;19.77;;
20441;SDS011;10380;52.102;20.614;2023-02-28T14:57:53;22.47;;;12.53;;
20441;SDS011;10380;52.102;20.614;2023-02-28T15:00:34;12.80;;;9.57;;
20441;SDS011;10380;52.102;20.614;2023-02-28T15:03:39;16.07;;;10.27;;
20441;SDS011;10380;52.102;20.614;2023-02-28T15:06:13;15.63;;;9.67;;
20441;SDS011;10380;52.102;20.614;2023-02-28T15:08:44;11.30;;;7.87;;
20441;SDS011;10380;52.102;20.614;2023-02-28T15:11:16;9.00;;;7.20;;
20441;SDS011;10380;52.102;20.614;2023-02-28T15:13:54;11.90;;;7.27;;
20441;SDS011;10380;52.102;20.614;2023-02-28T15:16:40;11.10;;;7.63;;
20441;SDS011;10380;52.102;20.614;2023-02-28T15:22:15;12.27;;;7.97;;
20441;SDS011;10380;52.102;20.614;2023-02-28T15:24:45;14.27;;;8.43;;
20441;SDS011;10380;52.102;20.614;2023-02-28T15:27:24;17.37;;;9.90;;
20441;SDS011;10380;52.102;20.614;2023-02-28T15:29:55;13.13;;;8.73;;
20441;SDS011;10380;52.102;20.614;2023-02-28T15:32:28;12.77;;;8.53;;
20441;SDS011;10380;52.102;20.614;2023-02-28T15:34:57;23.07;;;11.57;;
20441;SDS011;10380;52.102;20.614;2023-02-28T15:40:23;15.90;;;11.33;;
20441;SDS011;10380;52.102;20.614;2023-02-28T15:48:42;21.10;;;14.63;;
20441;SDS011;10380;52.102;20.614;2023-02-28T15:56:17;12.77;;;9.07;;
20441;SDS011;10380;52.102;20.614;2023-02-28T15:58:58;11.43;;;8.00;;
20441;SDS011;10380;52.102;20.614;2023-02-28T16:01:28;15.53;;;10.00;;
20441;SDS011;10380;52.102;20.614;2023-02-28T16:04:04;17.07;;;9.60;;
20441;SDS011;10380;52.102;20.614;2023-02-28T16:06:39;16.93;;;10.07;;
20441;SDS011;10380;52.102;20.614;2023-02-28T16:09:14;23.70;;;14.17;;
20441;SDS011;10380;52.102;20.614;2023-02-28T16:11:46;26.53;;;16.47;;
20441;SDS011;10380;52.102;20.614;2023-02-28T16:14:16;777.90;;;276.90;;
20441;SDS011;10380;52.102;20.614;2023-02-28T16:16:50;474.60;;;159.73;;
20441;SDS011;10380;52.102;20.614;2023-02-28T16:19:19;578.23;;;214.70;;
20441;SDS011;10380;52.102;20.614;2023-02-28T16:21:46;152.80;;;64.40;;
20441;SDS011;10380;52.102;20.614;2023-02-28T16:24:13;35.43;;;22.37;;
20441;SDS011;10380;52.102;20.614;2023-02-28T16:26:41;247.10;;;129.43;;
20441;SDS011;10380;52.102;20.614;2023-02-28T16:29:18;38.87;;;24.17;;
20441;SDS011;10380;52.102;20.614;2023-02-28T16:31:50;41.47;;;23.40;;
20441;SDS011;10380;52.102;20.614;2023-02-28T16:34:17;39.10;;;21.40;;
20441;SDS011;10380;52.102;20.614;2023-02-28T16:36:46;41.50;;;20.17;;
20441;SDS011;10380;52.102;20.614;2023-02-28T16:39:14;44.20;;;18.97;;
20441;SDS011;10380;52.102;20.614;2023-02-28T16:41:42;49.50;;;20.73;;
20441;SDS011;10380;52.102;20.614;2023-02-28T16:44:11;47.80;;;22.07;;
20441;SDS011;10380;52.102;20.614;2023-02-28T16:47:00;44.37;;;23.00;;
20441;SDS011;10380;52.102;20.614;2023-02-28T16:49:27;54.87;;;25.73;;
20441;SDS011;10380;52.102;20.614;2023-02-28T16:51:55;39.03;;;21.13;;
20441;SDS011;10380;52.102;20.614;2023-02-28T16:54:22;38.17;;;23.33;;
20441;SDS011;10380;52.102;20.614;2023-02-28T16:56:49;42.73;;;23.50;;
20441;SDS011;10380;52.102;20.614;2023-02-28T16:59:18;175.77;;;91.73;;
20441;SDS011;10380;52.102;20.614;2023-02-28T17:01:48;67.60;;;30.20;;
20441;SDS011;10380;52.102;20.614;2023-02-28T17:04:16;63.80;;;29.20;;
20441;SDS011;10380;52.102;20.614;2023-02-28T17:06:43;61.90;;;29.57;;
20441;SDS011;10380;52.102;20.614;2023-02-28T17:09:14;55.53;;;28.47;;
20441;SDS011;10380;52.102;20.614;2023-02-28T17:11:45;60.53;;;26.63;;
20441;SDS011;10380;52.102;20.614;2023-02-28T17:14:13;57.20;;;30.03;;
20441;SDS011;10380;52.102;20.614;2023-02-28T17:16:40;62.30;;;33.13;;
20441;SDS011;10380;52.102;20.614;2023-02-28T17:19:14;51.47;;;27.07;;